sensor_id;sensor_type;location;lat;lon;timestamp;P1;durP1;ratioP1;P2;durP2;ratioP2
73650;SDS011;61944;52.538;6.108;2023-07-28T00:01:50;22.50;;;7.70;;
73650;SDS011;61944;52.538;6.108;2023-07-28T00:04:15;21.92;;;9.10;;
73650;SDS011;61944;52.538;6.108;2023-07-28T00:06:41;15.30;;;7.57;;
73650;SDS011;61944;52.538;6.108;2023-07-28T00:09:06;16.10;;;7.93;;
73650;SDS011;61944;52.538;6.108;2023-07-28T00:11:32;16.20;;;6.57;;
73650;SDS011;61944;52.538;6.108;2023-07-28T00:13:57;20.67;;;9.10;;
73650;SDS011;61944;52.538;6.108;2023-07-28T00:16:22;15.32;;;9.30;;
73650;SDS011;61944;52.538;6.108;2023-07-28T00:18:48;24.77;;;9.27;;
73650;SDS011;61944;52.538;6.108;2023-07-28T00:21:13;18.55;;;7.78;;
73650;SDS011;61944;52.538;6.108;2023-07-28T00:23:38;16.08;;;8.90;;
73650;SDS011;61944;52.538;6.108;2023-07-28T00:26:04;16.00;;;7.68;;
73650;SDS011;61944;52.538;6.108;2023-07-28T00:28:29;11.30;;;6.25;;
73650;SDS011;61944;52.538;6.108;2023-07-28T00:30:55;19.13;;;7.53;;
73650;SDS011;61944;52.538;6.108;2023-07-28T00:33:20;14.27;;;6.53;;
73650;SDS011;61944;52.538;6.108;2023-07-28T00:35:45;15.30;;;6.63;;
73650;SDS011;61944;52.538;6.108;2023-07-28T00:38:11;15.07;;;7.07;;
73650;SDS011;61944;52.538;6.108;2023-07-28T00:40:36;16.30;;;7.05;;
73650;SDS011;61944;52.538;6.108;2023-07-28T00:43:01;12.68;;;6.55;;
73650;SDS011;61944;52.538;6.108;2023-07-28T00:45:27;16.20;;;6.78;;
73650;SDS011;61944;52.538;6.108;2023-07-28T00:47:55;18.60;;;8.35;;
73650;SDS011;61944;52.538;6.108;2023-07-28T00:50:22;17.67;;;7.18;;
73650;SDS011;61944;52.538;6.108;2023-07-28T00:52:48;16.33;;;6.82;;
73650;SDS011;61944;52.538;6.108;2023-07-28T00:55:14;17.58;;;8.05;;
73650;SDS011;61944;52.538;6.108;2023-07-28T00:57:40;11.38;;;7.25;;
73650;SDS011;61944;52.538;6.108;2023-07-28T01:00:06;14.27;;;7.05;;
73650;SDS011;61944;52.538;6.108;2023-07-28T01:02:31;18.60;;;7.28;;
73650;SDS011;61944;52.538;6.108;2023-07-28T01:04:57;14.73;;;7.30;;
73650;SDS011;61944;52.538;6.108;2023-07-28T01:07:26;14.38;;;7.40;;
73650;SDS011;61944;52.538;6.108;2023-07-28T01:10:05;11.82;;;6.53;;
73650;SDS011;61944;52.538;6.108;2023-07-28T01:12:33;13.40;;;7.53;;
73650;SDS011;61944;52.538;6.108;2023-07-28T01:14:58;17.02;;;9.23;;
73650;SDS011;61944;52.538;6.108;2023-07-28T01:17:23;20.50;;;7.78;;
73650;SDS011;61944;52.538;6.108;2023-07-28T01:19:49;14.55;;;7.50;;
73650;SDS011;61944;52.538;6.108;2023-07-28T01:25:06;17.08;;;7.47;;
73650;SDS011;61944;52.538;6.108;2023-07-28T01:27:32;15.13;;;7.22;;
73650;SDS011;61944;52.538;6.108;2023-07-28T01:29:59;21.80;;;6.45;;
73650;SDS011;61944;52.538;6.108;2023-07-28T01:32:25;18.90;;;7.63;;
73650;SDS011;61944;52.538;6.108;2023-07-28T01:34:50;16.13;;;6.68;;
73650;SDS011;61944;52.538;6.108;2023-07-28T01:37:16;14.98;;;7.57;;
73650;SDS011;61944;52.538;6.108;2023-07-28T01:39:41;17.45;;;7.97;;
73650;SDS011;61944;52.538;6.108;2023-07-28T01:42:06;15.90;;;6.75;;
73650;SDS011;61944;52.538;6.108;2023-07-28T01:44:32;14.20;;;7.25;;
73650;SDS011;61944;52.538;6.108;2023-07-28T01:46:57;17.15;;;6.80;;
73650;SDS011;61944;52.538;6.108;2023-07-28T01:49:23;18.80;;;7.68;;
73650;SDS011;61944;52.538;6.108;2023-07-28T01:51:48;15.50;;;6.65;;
73650;SDS011;61944;52.538;6.108;2023-07-28T01:54:13;15.63;;;8.15;;
73650;SDS011;61944;52.538;6.108;2023-07-28T01:56:39;10.85;;;7.07;;
73650;SDS011;61944;52.538;6.108;2023-07-28T01:59:04;15.48;;;6.85;;
73650;SDS011;61944;52.538;6.108;2023-07-28T02:01:29;16.90;;;8.32;;
73650;SDS011;61944;52.538;6.108;2023-07-28T02:03:55;12.88;;;6.65;;
73650;SDS011;61944;52.538;6.108;2023-07-28T02:06:20;14.65;;;6.32;;
73650;SDS011;61944;52.538;6.108;2023-07-28T02:08:45;10.13;;;6.40;;
73650;SDS011;61944;52.538;6.108;2023-07-28T02:11:11;15.65;;;6.93;;
73650;SDS011;61944;52.538;6.108;2023-07-28T02:13:36;14.48;;;7.35;;
73650;SDS011;61944;52.538;6.108;2023-07-28T02:16:05;19.05;;;7.88;;
73650;SDS011;61944;52.538;6.108;2023-07-28T02:18:30;16.38;;;7.82;;
73650;SDS011;61944;52.538;6.108;2023-07-28T02:20:55;15.68;;;7.28;;
73650;SDS011;61944;52.538;6.108;2023-07-28T02:23:21;14.27;;;7.55;;
73650;SDS011;61944;52.538;6.108;2023-07-28T02:25:46;16.58;;;8.05;;
73650;SDS011;61944;52.538;6.108;2023-07-28T02:28:12;18.92;;;7.50;;
73650;SDS011;61944;52.538;6.108;2023-07-28T02:30:37;19.25;;;8.20;;
73650;SDS011;61944;52.538;6.108;2023-07-28T02:33:03;18.77;;;7.72;;
73650;SDS011;61944;52.538;6.108;2023-07-28T02:35:28;17.65;;;8.32;;
73650;SDS011;61944;52.538;6.108;2023-07-28T02:37:53;15.45;;;8.30;;
73650;SDS011;61944;52.538;6.108;2023-07-28T02:40:19;18.33;;;9.20;;
73650;SDS011;61944;52.538;6.108;2023-07-28T02:42:44;21.17;;;8.77;;
73650;SDS011;61944;52.538;6.108;2023-07-28T02:45:10;13.82;;;8.00;;
73650;SDS011;61944;52.538;6.108;2023-07-28T02:47:35;18.27;;;9.13;;
73650;SDS011;61944;52.538;6.108;2023-07-28T02:50:01;15.95;;;7.57;;
73650;SDS011;61944;52.538;6.108;2023-07-28T02:52:26;15.27;;;8.93;;
73650;SDS011;61944;52.538;6.108;2023-07-28T02:54:52;15.63;;;8.48;;
73650;SDS011;61944;52.538;6.108;2023-07-28T02:57:17;16.38;;;10.07;;
73650;SDS011;61944;52.538;6.108;2023-07-28T02:59:43;15.77;;;9.00;;
73650;SDS011;61944;52.538;6.108;2023-07-28T03:02:08;19.10;;;10.32;;
73650;SDS011;61944;52.538;6.108;2023-07-28T03:04:34;24.38;;;10.23;;
73650;SDS011;61944;52.538;6.108;2023-07-28T03:06:59;15.48;;;8.32;;
73650;SDS011;61944;52.538;6.108;2023-07-28T03:09:24;16.40;;;8.93;;
73650;SDS011;61944;52.538;6.108;2023-07-28T03:11:50;19.35;;;10.00;;
73650;SDS011;61944;52.538;6.108;2023-07-28T03:14:15;20.05;;;9.93;;
73650;SDS011;61944;52.538;6.108;2023-07-28T03:16:41;16.92;;;9.65;;
73650;SDS011;61944;52.538;6.108;2023-07-28T03:19:07;26.58;;;10.20;;
73650;SDS011;61944;52.538;6.108;2023-07-28T03:21:32;23.52;;;10.80;;
73650;SDS011;61944;52.538;6.108;2023-07-28T03:23:58;21.90;;;11.07;;
73650;SDS011;61944;52.538;6.108;2023-07-28T03:26:23;25.05;;;11.20;;
73650;SDS011;61944;52.538;6.108;2023-07-28T03:28:49;18.65;;;8.75;;
73650;SDS011;61944;52.538;6.108;2023-07-28T03:31:14;17.92;;;9.73;;
73650;SDS011;61944;52.538;6.108;2023-07-28T03:33:39;20.90;;;11.27;;
73650;SDS011;61944;52.538;6.108;2023-07-28T03:36:05;23.33;;;10.80;;
73650;SDS011;61944;52.538;6.108;2023-07-28T03:38:30;20.08;;;9.80;;
73650;SDS011;61944;52.538;6.108;2023-07-28T03:40:55;18.65;;;9.25;;
73650;SDS011;61944;52.538;6.108;2023-07-28T03:43:21;22.20;;;9.63;;
73650;SDS011;61944;52.538;6.108;2023-07-28T03:45:47;16.55;;;8.55;;
73650;SDS011;61944;52.538;6.108;2023-07-28T03:48:12;26.30;;;9.90;;
73650;SDS011;61944;52.538;6.108;2023-07-28T03:50:38;18.75;;;9.43;;
73650;SDS011;61944;52.538;6.108;2023-07-28T03:53:03;26.13;;;10.07;;
73650;SDS011;61944;52.538;6.108;2023-07-28T03:55:28;20.90;;;10.30;;
73650;SDS011;61944;52.538;6.108;2023-07-28T03:57:54;19.48;;;8.25;;
73650;SDS011;61944;52.538;6.108;2023-07-28T04:00:19;17.88;;;9.30;;
73650;SDS011;61944;52.538;6.108;2023-07-28T04:02:45;21.70;;;11.30;;
73650;SDS011;61944;52.538;6.108;2023-07-28T04:05:11;22.15;;;11.32;;
73650;SDS011;61944;52.538;6.108;2023-07-28T04:07:36;20.85;;;9.80;;
73650;SDS011;61944;52.538;6.108;2023-07-28T04:10:02;23.05;;;12.15;;
73650;SDS011;61944;52.538;6.108;2023-07-28T04:12:27;25.73;;;11.23;;
73650;SDS011;61944;52.538;6.108;2023-07-28T04:14:53;21.08;;;9.70;;
73650;SDS011;61944;52.538;6.108;2023-07-28T04:17:18;25.30;;;10.60;;
73650;SDS011;61944;52.538;6.108;2023-07-28T04:19:43;18.92;;;10.95;;
73650;SDS011;61944;52.538;6.108;2023-07-28T04:22:09;23.13;;;10.32;;
73650;SDS011;61944;52.538;6.108;2023-07-28T04:24:34;29.05;;;11.38;;
73650;SDS011;61944;52.538;6.108;2023-07-28T04:27:00;27.58;;;12.70;;
73650;SDS011;61944;52.538;6.108;2023-07-28T04:29:25;22.45;;;10.30;;
73650;SDS011;61944;52.538;6.108;2023-07-28T04:31:52;19.85;;;9.98;;
73650;SDS011;61944;52.538;6.108;2023-07-28T04:34:17;24.38;;;10.27;;
73650;SDS011;61944;52.538;6.108;2023-07-28T04:36:43;23.70;;;10.13;;
73650;SDS011;61944;52.538;6.108;2023-07-28T04:39:08;25.65;;;11.48;;
73650;SDS011;61944;52.538;6.108;2023-07-28T04:41:33;24.27;;;10.90;;
73650;SDS011;61944;52.538;6.108;2023-07-28T04:43:59;26.63;;;11.88;;
73650;SDS011;61944;52.538;6.108;2023-07-28T04:46:24;23.17;;;10.15;;
73650;SDS011;61944;52.538;6.108;2023-07-28T04:48:50;24.52;;;10.60;;
73650;SDS011;61944;52.538;6.108;2023-07-28T04:51:15;23.98;;;11.52;;
73650;SDS011;61944;52.538;6.108;2023-07-28T04:53:41;27.02;;;11.75;;
73650;SDS011;61944;52.538;6.108;2023-07-28T04:56:07;24.23;;;12.18;;
73650;SDS011;61944;52.538;6.108;2023-07-28T04:58:33;23.08;;;9.80;;
73650;SDS011;61944;52.538;6.108;2023-07-28T05:00:58;24.20;;;10.23;;
73650;SDS011;61944;52.538;6.108;2023-07-28T05:03:24;27.58;;;9.73;;
73650;SDS011;61944;52.538;6.108;2023-07-28T05:05:49;18.77;;;9.45;;
73650;SDS011;61944;52.538;6.108;2023-07-28T05:08:15;21.65;;;11.18;;
73650;SDS011;61944;52.538;6.108;2023-07-28T05:10:40;24.33;;;10.85;;
73650;SDS011;61944;52.538;6.108;2023-07-28T05:13:08;23.08;;;11.18;;
73650;SDS011;61944;52.538;6.108;2023-07-28T05:15:33;23.27;;;11.18;;
73650;SDS011;61944;52.538;6.108;2023-07-28T05:17:59;26.50;;;10.75;;
73650;SDS011;61944;52.538;6.108;2023-07-28T05:20:24;26.95;;;11.80;;
73650;SDS011;61944;52.538;6.108;2023-07-28T05:22:49;22.58;;;10.35;;
73650;SDS011;61944;52.538;6.108;2023-07-28T05:25:15;18.10;;;9.65;;
73650;SDS011;61944;52.538;6.108;2023-07-28T05:27:40;22.48;;;10.95;;
73650;SDS011;61944;52.538;6.108;2023-07-28T05:30:06;23.40;;;10.52;;
73650;SDS011;61944;52.538;6.108;2023-07-28T05:32:32;21.75;;;10.82;;
73650;SDS011;61944;52.538;6.108;2023-07-28T05:34:57;27.00;;;11.73;;
73650;SDS011;61944;52.538;6.108;2023-07-28T05:37:23;16.75;;;9.30;;
73650;SDS011;61944;52.538;6.108;2023-07-28T05:39:48;21.10;;;10.90;;
73650;SDS011;61944;52.538;6.108;2023-07-28T05:42:14;20.67;;;10.20;;
73650;SDS011;61944;52.538;6.108;2023-07-28T05:44:39;16.63;;;9.73;;
73650;SDS011;61944;52.538;6.108;2023-07-28T05:47:05;26.85;;;10.48;;
73650;SDS011;61944;52.538;6.108;2023-07-28T05:49:31;23.15;;;11.00;;
73650;SDS011;61944;52.538;6.108;2023-07-28T05:51:57;27.50;;;12.25;;
73650;SDS011;61944;52.538;6.108;2023-07-28T05:54:22;22.73;;;10.25;;
73650;SDS011;61944;52.538;6.108;2023-07-28T05:56:48;19.33;;;9.50;;
73650;SDS011;61944;52.538;6.108;2023-07-28T05:59:13;21.23;;;10.88;;
73650;SDS011;61944;52.538;6.108;2023-07-28T06:01:38;25.95;;;11.27;;
73650;SDS011;61944;52.538;6.108;2023-07-28T06:04:04;18.92;;;10.70;;
73650;SDS011;61944;52.538;6.108;2023-07-28T06:06:29;20.10;;;10.10;;
73650;SDS011;61944;52.538;6.108;2023-07-28T06:08:54;21.92;;;11.60;;
73650;SDS011;61944;52.538;6.108;2023-07-28T06:11:20;23.50;;;9.82;;
73650;SDS011;61944;52.538;6.108;2023-07-28T06:13:46;16.88;;;8.70;;
73650;SDS011;61944;52.538;6.108;2023-07-28T06:16:12;17.67;;;9.50;;
73650;SDS011;61944;52.538;6.108;2023-07-28T06:18:38;17.23;;;10.30;;
73650;SDS011;61944;52.538;6.108;2023-07-28T06:21:03;22.45;;;10.65;;
73650;SDS011;61944;52.538;6.108;2023-07-28T06:23:28;20.73;;;9.95;;
73650;SDS011;61944;52.538;6.108;2023-07-28T06:25:54;22.38;;;10.48;;
73650;SDS011;61944;52.538;6.108;2023-07-28T06:28:20;17.77;;;10.18;;
73650;SDS011;61944;52.538;6.108;2023-07-28T06:30:45;19.38;;;9.77;;
73650;SDS011;61944;52.538;6.108;2023-07-28T06:33:11;18.92;;;10.38;;
73650;SDS011;61944;52.538;6.108;2023-07-28T06:35:36;14.48;;;9.10;;
73650;SDS011;61944;52.538;6.108;2023-07-28T06:38:02;19.15;;;9.32;;
73650;SDS011;61944;52.538;6.108;2023-07-28T06:40:28;21.92;;;11.32;;
73650;SDS011;61944;52.538;6.108;2023-07-28T06:42:54;18.38;;;10.27;;
73650;SDS011;61944;52.538;6.108;2023-07-28T06:45:20;18.00;;;9.82;;
73650;SDS011;61944;52.538;6.108;2023-07-28T06:47:45;17.65;;;8.82;;
73650;SDS011;61944;52.538;6.108;2023-07-28T06:50:11;11.50;;;7.32;;
73650;SDS011;61944;52.538;6.108;2023-07-28T06:52:37;18.95;;;9.63;;
73650;SDS011;61944;52.538;6.108;2023-07-28T06:55:02;15.55;;;7.57;;
73650;SDS011;61944;52.538;6.108;2023-07-28T06:57:28;20.55;;;9.07;;
73650;SDS011;61944;52.538;6.108;2023-07-28T06:59:54;16.40;;;7.80;;
73650;SDS011;61944;52.538;6.108;2023-07-28T07:02:20;18.55;;;9.43;;
73650;SDS011;61944;52.538;6.108;2023-07-28T07:04:45;19.60;;;9.43;;
73650;SDS011;61944;52.538;6.108;2023-07-28T07:07:10;21.33;;;9.18;;
73650;SDS011;61944;52.538;6.108;2023-07-28T07:09:36;22.48;;;8.88;;
73650;SDS011;61944;52.538;6.108;2023-07-28T07:12:02;16.10;;;8.90;;
73650;SDS011;61944;52.538;6.108;2023-07-28T07:14:27;23.98;;;10.00;;
73650;SDS011;61944;52.538;6.108;2023-07-28T07:16:53;17.33;;;9.02;;
73650;SDS011;61944;52.538;6.108;2023-07-28T07:19:19;17.15;;;8.95;;
73650;SDS011;61944;52.538;6.108;2023-07-28T07:21:44;15.35;;;8.68;;
73650;SDS011;61944;52.538;6.108;2023-07-28T07:24:10;19.65;;;8.68;;
73650;SDS011;61944;52.538;6.108;2023-07-28T07:26:38;12.07;;;7.25;;
73650;SDS011;61944;52.538;6.108;2023-07-28T07:29:04;14.15;;;7.40;;
73650;SDS011;61944;52.538;6.108;2023-07-28T07:31:29;16.00;;;8.25;;
73650;SDS011;61944;52.538;6.108;2023-07-28T07:33:55;15.18;;;8.43;;
73650;SDS011;61944;52.538;6.108;2023-07-28T07:36:20;15.68;;;8.80;;
73650;SDS011;61944;52.538;6.108;2023-07-28T07:38:45;13.77;;;8.80;;
73650;SDS011;61944;52.538;6.108;2023-07-28T07:41:11;17.20;;;9.20;;
73650;SDS011;61944;52.538;6.108;2023-07-28T07:43:44;15.68;;;8.10;;
73650;SDS011;61944;52.538;6.108;2023-07-28T07:46:09;19.13;;;9.13;;
73650;SDS011;61944;52.538;6.108;2023-07-28T07:48:35;17.75;;;7.95;;
73650;SDS011;61944;52.538;6.108;2023-07-28T07:51:00;21.02;;;8.93;;
73650;SDS011;61944;52.538;6.108;2023-07-28T07:53:25;17.73;;;9.35;;
73650;SDS011;61944;52.538;6.108;2023-07-28T07:55:51;19.10;;;9.05;;
73650;SDS011;61944;52.538;6.108;2023-07-28T07:58:16;16.27;;;8.30;;
73650;SDS011;61944;52.538;6.108;2023-07-28T08:00:42;21.58;;;9.48;;
73650;SDS011;61944;52.538;6.108;2023-07-28T08:03:09;14.32;;;8.05;;
73650;SDS011;61944;52.538;6.108;2023-07-28T08:05:35;20.67;;;9.73;;
73650;SDS011;61944;52.538;6.108;2023-07-28T08:08:00;19.75;;;10.05;;
73650;SDS011;61944;52.538;6.108;2023-07-28T08:10:26;16.27;;;9.70;;
73650;SDS011;61944;52.538;6.108;2023-07-28T08:12:53;15.85;;;9.63;;
73650;SDS011;61944;52.538;6.108;2023-07-28T08:15:19;18.35;;;8.57;;
73650;SDS011;61944;52.538;6.108;2023-07-28T08:17:45;17.67;;;8.75;;
73650;SDS011;61944;52.538;6.108;2023-07-28T08:20:10;20.67;;;8.82;;
73650;SDS011;61944;52.538;6.108;2023-07-28T08:22:36;15.55;;;9.05;;
73650;SDS011;61944;52.538;6.108;2023-07-28T08:25:01;17.63;;;8.93;;
73650;SDS011;61944;52.538;6.108;2023-07-28T08:27:26;15.07;;;9.60;;
73650;SDS011;61944;52.538;6.108;2023-07-28T08:29:52;16.42;;;8.95;;
73650;SDS011;61944;52.538;6.108;2023-07-28T08:32:17;17.55;;;9.15;;
73650;SDS011;61944;52.538;6.108;2023-07-28T08:34:43;21.23;;;10.25;;
73650;SDS011;61944;52.538;6.108;2023-07-28T08:37:08;17.35;;;8.88;;
73650;SDS011;61944;52.538;6.108;2023-07-28T08:39:34;19.10;;;9.85;;
73650;SDS011;61944;52.538;6.108;2023-07-28T08:42:00;18.15;;;10.05;;
73650;SDS011;61944;52.538;6.108;2023-07-28T08:44:26;21.13;;;11.02;;
73650;SDS011;61944;52.538;6.108;2023-07-28T08:46:54;26.83;;;11.85;;
73650;SDS011;61944;52.538;6.108;2023-07-28T08:49:19;14.68;;;9.70;;
73650;SDS011;61944;52.538;6.108;2023-07-28T08:51:52;17.45;;;9.35;;
73650;SDS011;61944;52.538;6.108;2023-07-28T08:54:23;19.02;;;9.60;;
73650;SDS011;61944;52.538;6.108;2023-07-28T08:56:48;28.35;;;12.25;;
73650;SDS011;61944;52.538;6.108;2023-07-28T08:59:20;18.98;;;10.00;;
73650;SDS011;61944;52.538;6.108;2023-07-28T09:01:47;16.92;;;9.48;;
73650;SDS011;61944;52.538;6.108;2023-07-28T09:04:15;14.93;;;8.48;;
73650;SDS011;61944;52.538;6.108;2023-07-28T09:06:40;19.52;;;8.93;;
73650;SDS011;61944;52.538;6.108;2023-07-28T09:09:10;16.73;;;9.10;;
73650;SDS011;61944;52.538;6.108;2023-07-28T09:11:43;19.77;;;9.88;;
73650;SDS011;61944;52.538;6.108;2023-07-28T09:14:13;16.77;;;9.55;;
73650;SDS011;61944;52.538;6.108;2023-07-28T09:16:39;17.65;;;9.68;;
73650;SDS011;61944;52.538;6.108;2023-07-28T09:19:05;22.15;;;10.32;;
73650;SDS011;61944;52.538;6.108;2023-07-28T09:21:32;19.88;;;10.57;;
73650;SDS011;61944;52.538;6.108;2023-07-28T09:23:59;14.18;;;8.73;;
73650;SDS011;61944;52.538;6.108;2023-07-28T09:26:36;17.83;;;9.50;;
73650;SDS011;61944;52.538;6.108;2023-07-28T09:29:10;21.50;;;10.43;;
73650;SDS011;61944;52.538;6.108;2023-07-28T09:31:37;18.20;;;9.50;;
73650;SDS011;61944;52.538;6.108;2023-07-28T09:34:03;17.52;;;9.13;;
73650;SDS011;61944;52.538;6.108;2023-07-28T09:36:32;14.88;;;9.63;;
73650;SDS011;61944;52.538;6.108;2023-07-28T09:38:58;16.58;;;9.43;;
73650;SDS011;61944;52.538;6.108;2023-07-28T09:41:23;20.67;;;11.57;;
73650;SDS011;61944;52.538;6.108;2023-07-28T09:43:50;18.17;;;10.20;;
73650;SDS011;61944;52.538;6.108;2023-07-28T09:46:16;17.73;;;10.07;;
73650;SDS011;61944;52.538;6.108;2023-07-28T09:48:44;22.27;;;10.90;;
73650;SDS011;61944;52.538;6.108;2023-07-28T09:51:12;18.05;;;7.78;;
73650;SDS011;61944;52.538;6.108;2023-07-28T09:53:46;22.67;;;11.77;;
73650;SDS011;61944;52.538;6.108;2023-07-28T09:56:15;22.13;;;11.32;;
73650;SDS011;61944;52.538;6.108;2023-07-28T09:58:50;21.30;;;12.93;;
73650;SDS011;61944;52.538;6.108;2023-07-28T10:01:17;24.00;;;12.98;;
73650;SDS011;61944;52.538;6.108;2023-07-28T10:03:44;26.70;;;13.05;;
73650;SDS011;61944;52.538;6.108;2023-07-28T10:06:10;21.98;;;13.98;;
73650;SDS011;61944;52.538;6.108;2023-07-28T10:08:36;24.23;;;14.10;;
73650;SDS011;61944;52.538;6.108;2023-07-28T10:11:03;23.45;;;14.07;;
73650;SDS011;61944;52.538;6.108;2023-07-28T10:13:33;23.05;;;12.43;;
73650;SDS011;61944;52.538;6.108;2023-07-28T10:16:06;22.75;;;12.88;;
73650;SDS011;61944;52.538;6.108;2023-07-28T10:18:32;20.40;;;13.95;;
73650;SDS011;61944;52.538;6.108;2023-07-28T10:21:04;23.70;;;13.77;;
73650;SDS011;61944;52.538;6.108;2023-07-28T10:23:32;21.88;;;13.00;;
73650;SDS011;61944;52.538;6.108;2023-07-28T10:26:00;19.27;;;12.82;;
73650;SDS011;61944;52.538;6.108;2023-07-28T10:30:56;21.70;;;12.57;;
73650;SDS011;61944;52.538;6.108;2023-07-28T10:33:44;20.27;;;11.57;;
73650;SDS011;61944;52.538;6.108;2023-07-28T10:38:43;18.58;;;11.70;;
73650;SDS011;61944;52.538;6.108;2023-07-28T10:41:15;21.95;;;11.63;;
73650;SDS011;61944;52.538;6.108;2023-07-28T10:43:44;20.48;;;12.10;;
73650;SDS011;61944;52.538;6.108;2023-07-28T10:46:11;19.92;;;10.23;;
73650;SDS011;61944;52.538;6.108;2023-07-28T10:48:43;15.43;;;10.55;;
73650;SDS011;61944;52.538;6.108;2023-07-28T10:51:10;14.98;;;9.95;;
73650;SDS011;61944;52.538;6.108;2023-07-28T10:53:37;17.08;;;9.02;;
73650;SDS011;61944;52.538;6.108;2023-07-28T10:56:02;13.32;;;8.60;;
73650;SDS011;61944;52.538;6.108;2023-07-28T10:58:29;14.55;;;9.07;;
73650;SDS011;61944;52.538;6.108;2023-07-28T11:00:56;16.75;;;7.05;;
73650;SDS011;61944;52.538;6.108;2023-07-28T11:03:22;12.02;;;8.20;;
73650;SDS011;61944;52.538;6.108;2023-07-28T11:05:48;13.52;;;8.68;;
73650;SDS011;61944;52.538;6.108;2023-07-28T11:08:14;13.02;;;9.15;;
73650;SDS011;61944;52.538;6.108;2023-07-28T11:10:40;15.48;;;8.77;;
73650;SDS011;61944;52.538;6.108;2023-07-28T11:13:06;14.80;;;8.55;;
73650;SDS011;61944;52.538;6.108;2023-07-28T11:15:32;12.90;;;8.75;;
73650;SDS011;61944;52.538;6.108;2023-07-28T11:17:58;17.63;;;8.98;;
73650;SDS011;61944;52.538;6.108;2023-07-28T11:20:27;11.95;;;7.15;;
73650;SDS011;61944;52.538;6.108;2023-07-28T11:23:00;14.80;;;8.68;;
73650;SDS011;61944;52.538;6.108;2023-07-28T11:25:31;11.98;;;7.80;;
73650;SDS011;61944;52.538;6.108;2023-07-28T11:27:57;16.02;;;8.77;;
73650;SDS011;61944;52.538;6.108;2023-07-28T11:30:23;16.38;;;9.05;;
73650;SDS011;61944;52.538;6.108;2023-07-28T11:32:50;11.00;;;7.40;;
73650;SDS011;61944;52.538;6.108;2023-07-28T11:35:17;15.52;;;8.43;;
73650;SDS011;61944;52.538;6.108;2023-07-28T11:37:45;14.85;;;8.20;;
73650;SDS011;61944;52.538;6.108;2023-07-28T11:40:14;15.57;;;8.95;;
73650;SDS011;61944;52.538;6.108;2023-07-28T11:42:43;16.60;;;9.85;;
73650;SDS011;61944;52.538;6.108;2023-07-28T11:45:12;13.32;;;8.52;;
73650;SDS011;61944;52.538;6.108;2023-07-28T11:47:38;16.13;;;9.55;;
73650;SDS011;61944;52.538;6.108;2023-07-28T11:50:04;14.48;;;8.25;;
73650;SDS011;61944;52.538;6.108;2023-07-28T11:52:33;14.70;;;7.85;;
73650;SDS011;61944;52.538;6.108;2023-07-28T11:55:00;8.80;;;7.72;;
73650;SDS011;61944;52.538;6.108;2023-07-28T11:57:27;12.90;;;8.25;;
73650;SDS011;61944;52.538;6.108;2023-07-28T11:59:56;13.25;;;7.47;;
73650;SDS011;61944;52.538;6.108;2023-07-28T12:02:29;13.65;;;7.60;;
73650;SDS011;61944;52.538;6.108;2023-07-28T12:04:56;16.58;;;8.52;;
73650;SDS011;61944;52.538;6.108;2023-07-28T12:07:30;14.05;;;8.93;;
73650;SDS011;61944;52.538;6.108;2023-07-28T12:09:56;9.55;;;6.30;;
73650;SDS011;61944;52.538;6.108;2023-07-28T12:12:27;10.75;;;6.82;;
73650;SDS011;61944;52.538;6.108;2023-07-28T12:14:55;10.90;;;8.13;;
73650;SDS011;61944;52.538;6.108;2023-07-28T12:17:24;8.70;;;6.68;;
73650;SDS011;61944;52.538;6.108;2023-07-28T12:20:06;10.13;;;6.63;;
73650;SDS011;61944;52.538;6.108;2023-07-28T12:22:45;13.98;;;6.55;;
73650;SDS011;61944;52.538;6.108;2023-07-28T12:25:11;9.18;;;5.97;;
73650;SDS011;61944;52.538;6.108;2023-07-28T12:27:37;9.93;;;7.43;;
73650;SDS011;61944;52.538;6.108;2023-07-28T12:30:03;8.25;;;5.53;;
73650;SDS011;61944;52.538;6.108;2023-07-28T12:32:29;7.85;;;5.60;;
73650;SDS011;61944;52.538;6.108;2023-07-28T12:34:55;7.97;;;5.43;;
73650;SDS011;61944;52.538;6.108;2023-07-28T12:37:20;8.15;;;5.07;;
73650;SDS011;61944;52.538;6.108;2023-07-28T12:39:46;6.50;;;5.35;;
73650;SDS011;61944;52.538;6.108;2023-07-28T12:42:13;7.40;;;5.97;;
73650;SDS011;61944;52.538;6.108;2023-07-28T12:44:39;6.90;;;5.13;;
73650;SDS011;61944;52.538;6.108;2023-07-28T12:47:06;12.15;;;6.30;;
73650;SDS011;61944;52.538;6.108;2023-07-28T12:49:32;7.43;;;5.35;;
73650;SDS011;61944;52.538;6.108;2023-07-28T12:51:59;9.77;;;5.40;;
73650;SDS011;61944;52.538;6.108;2023-07-28T12:54:26;6.75;;;5.55;;
73650;SDS011;61944;52.538;6.108;2023-07-28T12:56:53;9.07;;;5.57;;
73650;SDS011;61944;52.538;6.108;2023-07-28T12:59:19;8.13;;;5.70;;
73650;SDS011;61944;52.538;6.108;2023-07-28T13:01:46;6.97;;;5.90;;
73650;SDS011;61944;52.538;6.108;2023-07-28T13:04:11;9.88;;;5.55;;
73650;SDS011;61944;52.538;6.108;2023-07-28T13:06:36;9.25;;;5.72;;
73650;SDS011;61944;52.538;6.108;2023-07-28T13:09:02;7.75;;;5.10;;
73650;SDS011;61944;52.538;6.108;2023-07-28T13:11:28;6.35;;;4.90;;
73650;SDS011;61944;52.538;6.108;2023-07-28T13:13:54;6.40;;;4.35;;
73650;SDS011;61944;52.538;6.108;2023-07-28T13:16:19;8.73;;;4.63;;
73650;SDS011;61944;52.538;6.108;2023-07-28T13:18:45;6.68;;;4.13;;
73650;SDS011;61944;52.538;6.108;2023-07-28T13:21:10;6.05;;;4.80;;
73650;SDS011;61944;52.538;6.108;2023-07-28T13:23:36;7.07;;;4.35;;
73650;SDS011;61944;52.538;6.108;2023-07-28T13:26:02;7.38;;;3.90;;
73650;SDS011;61944;52.538;6.108;2023-07-28T13:28:31;6.88;;;3.70;;
73650;SDS011;61944;52.538;6.108;2023-07-28T13:31:03;7.25;;;4.50;;
73650;SDS011;61944;52.538;6.108;2023-07-28T13:33:29;5.35;;;4.40;;
73650;SDS011;61944;52.538;6.108;2023-07-28T13:35:55;6.00;;;4.03;;
73650;SDS011;61944;52.538;6.108;2023-07-28T13:38:21;5.95;;;3.60;;
73650;SDS011;61944;52.538;6.108;2023-07-28T13:40:47;8.43;;;4.70;;
73650;SDS011;61944;52.538;6.108;2023-07-28T13:43:12;5.97;;;3.80;;
73650;SDS011;61944;52.538;6.108;2023-07-28T13:45:37;7.25;;;3.80;;
73650;SDS011;61944;52.538;6.108;2023-07-28T13:48:03;5.60;;;3.80;;
73650;SDS011;61944;52.538;6.108;2023-07-28T13:50:28;5.38;;;3.38;;
73650;SDS011;61944;52.538;6.108;2023-07-28T13:52:54;4.60;;;4.03;;
73650;SDS011;61944;52.538;6.108;2023-07-28T13:55:19;5.85;;;3.53;;
73650;SDS011;61944;52.538;6.108;2023-07-28T13:57:45;3.88;;;2.92;;
73650;SDS011;61944;52.538;6.108;2023-07-28T14:00:11;6.63;;;3.35;;
73650;SDS011;61944;52.538;6.108;2023-07-28T14:02:37;4.97;;;3.83;;
73650;SDS011;61944;52.538;6.108;2023-07-28T14:05:03;6.68;;;3.53;;
73650;SDS011;61944;52.538;6.108;2023-07-28T14:07:30;8.43;;;4.13;;
73650;SDS011;61944;52.538;6.108;2023-07-28T14:09:56;6.32;;;3.83;;
73650;SDS011;61944;52.538;6.108;2023-07-28T14:12:21;5.07;;;3.70;;
73650;SDS011;61944;52.538;6.108;2023-07-28T14:14:47;5.65;;;3.92;;
73650;SDS011;61944;52.538;6.108;2023-07-28T14:17:12;4.50;;;3.33;;
73650;SDS011;61944;52.538;6.108;2023-07-28T14:19:38;5.70;;;3.90;;
73650;SDS011;61944;52.538;6.108;2023-07-28T14:22:05;4.47;;;3.72;;
73650;SDS011;61944;52.538;6.108;2023-07-28T14:24:30;4.10;;;3.03;;
73650;SDS011;61944;52.538;6.108;2023-07-28T14:26:56;3.03;;;2.38;;
73650;SDS011;61944;52.538;6.108;2023-07-28T14:29:21;3.70;;;2.72;;
73650;SDS011;61944;52.538;6.108;2023-07-28T14:31:47;3.92;;;2.80;;
73650;SDS011;61944;52.538;6.108;2023-07-28T14:34:12;2.90;;;2.60;;
73650;SDS011;61944;52.538;6.108;2023-07-28T14:36:38;3.33;;;2.30;;